sensor_id;sensor_type;location;lat;lon;timestamp;P1;durP1;ratioP1;P2;durP2;ratioP2
13985;SDS011;7067;51.832;8.296;2022-09-30T00:02:07;17.00;;;14.88;;
13985;SDS011;7067;51.832;8.296;2022-09-30T00:04:34;17.85;;;15.05;;
13985;SDS011;7067;51.832;8.296;2022-09-30T00:06:59;15.63;;;14.02;;
13985;SDS011;7067;51.832;8.296;2022-09-30T00:09:25;16.27;;;14.77;;
13985;SDS011;7067;51.832;8.296;2022-09-30T00:11:50;20.67;;;15.60;;
13985;SDS011;7067;51.832;8.296;2022-09-30T00:14:16;15.82;;;14.23;;
13985;SDS011;7067;51.832;8.296;2022-09-30T00:16:44;15.55;;;14.00;;
13985;SDS011;7067;51.832;8.296;2022-09-30T00:19:10;16.02;;;14.40;;
13985;SDS011;7067;51.832;8.296;2022-09-30T00:21:35;16.95;;;15.10;;
13985;SDS011;7067;51.832;8.296;2022-09-30T00:24:01;16.20;;;14.70;;
13985;SDS011;7067;51.832;8.296;2022-09-30T00:26:28;16.40;;;14.90;;
13985;SDS011;7067;51.832;8.296;2022-09-30T00:28:54;15.40;;;13.80;;
13985;SDS011;7067;51.832;8.296;2022-09-30T00:31:21;20.08;;;14.63;;
13985;SDS011;7067;51.832;8.296;2022-09-30T00:33:47;16.52;;;14.40;;
13985;SDS011;7067;51.832;8.296;2022-09-30T00:36:48;17.27;;;15.07;;
13985;SDS011;7067;51.832;8.296;2022-09-30T00:39:22;16.92;;;15.15;;
13985;SDS011;7067;51.832;8.296;2022-09-30T00:41:54;16.15;;;14.65;;
13985;SDS011;7067;51.832;8.296;2022-09-30T00:49:45;16.17;;;14.48;;
13985;SDS011;7067;51.832;8.296;2022-09-30T00:52:10;14.95;;;13.65;;
13985;SDS011;7067;51.832;8.296;2022-09-30T00:54:36;15.00;;;13.48;;
13985;SDS011;7067;51.832;8.296;2022-09-30T00:57:02;13.93;;;12.52;;
13985;SDS011;7067;51.832;8.296;2022-09-30T00:59:31;14.52;;;12.85;;
13985;SDS011;7067;51.832;8.296;2022-09-30T01:01:59;15.07;;;13.65;;
13985;SDS011;7067;51.832;8.296;2022-09-30T01:04:25;14.52;;;13.02;;
13985;SDS011;7067;51.832;8.296;2022-09-30T01:06:53;14.95;;;13.65;;
13985;SDS011;7067;51.832;8.296;2022-09-30T01:09:19;14.25;;;12.98;;
13985;SDS011;7067;51.832;8.296;2022-09-30T01:11:44;15.85;;;13.77;;
13985;SDS011;7067;51.832;8.296;2022-09-30T01:14:14;14.82;;;13.60;;
13985;SDS011;7067;51.832;8.296;2022-09-30T01:16:59;13.93;;;12.53;;
13985;SDS011;7067;51.832;8.296;2022-09-30T01:28:28;14.60;;;13.20;;
13985;SDS011;7067;51.832;8.296;2022-09-30T01:34:47;15.55;;;14.05;;
13985;SDS011;7067;51.832;8.296;2022-09-30T01:37:26;15.77;;;14.30;;
13985;SDS011;7067;51.832;8.296;2022-09-30T01:40:23;15.68;;;14.15;;
13985;SDS011;7067;51.832;8.296;2022-09-30T01:53:50;15.00;;;13.57;;
13985;SDS011;7067;51.832;8.296;2022-09-30T01:56:24;15.43;;;14.10;;
13985;SDS011;7067;51.832;8.296;2022-09-30T01:59:04;14.32;;;13.07;;
13985;SDS011;7067;51.832;8.296;2022-09-30T02:01:34;14.43;;;13.20;;
13985;SDS011;7067;51.832;8.296;2022-09-30T02:04:04;15.52;;;14.02;;
13985;SDS011;7067;51.832;8.296;2022-09-30T02:06:40;15.37;;;13.67;;
13985;SDS011;7067;51.832;8.296;2022-09-30T02:09:10;13.53;;;12.43;;
13985;SDS011;7067;51.832;8.296;2022-09-30T02:11:37;14.57;;;13.32;;
13985;SDS011;7067;51.832;8.296;2022-09-30T02:14:04;15.77;;;13.83;;
13985;SDS011;7067;51.832;8.296;2022-09-30T02:19:37;14.25;;;13.05;;
13985;SDS011;7067;51.832;8.296;2022-09-30T02:22:06;14.20;;;13.10;;
13985;SDS011;7067;51.832;8.296;2022-09-30T02:24:35;14.97;;;13.73;;
13985;SDS011;7067;51.832;8.296;2022-09-30T02:27:02;14.40;;;12.97;;
13985;SDS011;7067;51.832;8.296;2022-09-30T02:29:30;18.03;;;13.80;;
13985;SDS011;7067;51.832;8.296;2022-09-30T02:32:02;16.10;;;14.60;;
13985;SDS011;7067;51.832;8.296;2022-09-30T02:34:49;14.43;;;13.30;;
13985;SDS011;7067;51.832;8.296;2022-09-30T02:37:25;15.83;;;14.43;;
13985;SDS011;7067;51.832;8.296;2022-09-30T02:39:57;15.53;;;14.07;;
13985;SDS011;7067;51.832;8.296;2022-09-30T02:42:26;15.93;;;14.38;;
13985;SDS011;7067;51.832;8.296;2022-09-30T02:44:53;15.53;;;14.13;;
13985;SDS011;7067;51.832;8.296;2022-09-30T02:50:05;17.27;;;14.37;;
13985;SDS011;7067;51.832;8.296;2022-09-30T02:55:18;15.63;;;13.70;;
13985;SDS011;7067;51.832;8.296;2022-09-30T03:00:41;14.47;;;13.17;;
13985;SDS011;7067;51.832;8.296;2022-09-30T03:03:09;15.70;;;14.43;;
13985;SDS011;7067;51.832;8.296;2022-09-30T03:05:36;15.23;;;13.95;;
13985;SDS011;7067;51.832;8.296;2022-09-30T03:08:02;15.17;;;13.97;;
13985;SDS011;7067;51.832;8.296;2022-09-30T03:10:27;14.07;;;12.70;;
13985;SDS011;7067;51.832;8.296;2022-09-30T03:13:01;15.85;;;13.95;;
13985;SDS011;7067;51.832;8.296;2022-09-30T03:15:55;16.20;;;14.80;;
13985;SDS011;7067;51.832;8.296;2022-09-30T03:18:33;14.83;;;13.33;;
13985;SDS011;7067;51.832;8.296;2022-09-30T03:24:09;15.57;;;13.77;;
13985;SDS011;7067;51.832;8.296;2022-09-30T03:29:42;14.80;;;13.50;;
13985;SDS011;7067;51.832;8.296;2022-09-30T03:45:45;13.73;;;12.47;;
13985;SDS011;7067;51.832;8.296;2022-09-30T03:48:30;14.57;;;13.13;;
13985;SDS011;7067;51.832;8.296;2022-09-30T03:50:57;13.97;;;12.77;;
13985;SDS011;7067;51.832;8.296;2022-09-30T03:53:23;13.87;;;12.57;;
13985;SDS011;7067;51.832;8.296;2022-09-30T03:55:50;13.47;;;12.30;;
13985;SDS011;7067;51.832;8.296;2022-09-30T03:58:19;14.13;;;12.83;;
13985;SDS011;7067;51.832;8.296;2022-09-30T04:00:48;15.70;;;12.93;;
13985;SDS011;7067;51.832;8.296;2022-09-30T04:03:15;13.43;;;12.23;;
13985;SDS011;7067;51.832;8.296;2022-09-30T04:05:41;13.83;;;12.60;;
13985;SDS011;7067;51.832;8.296;2022-09-30T04:08:07;13.53;;;12.30;;
13985;SDS011;7067;51.832;8.296;2022-09-30T04:10:33;15.33;;;13.83;;
13985;SDS011;7067;51.832;8.296;2022-09-30T04:12:58;14.60;;;13.30;;
13985;SDS011;7067;51.832;8.296;2022-09-30T04:15:24;13.30;;;12.10;;
13985;SDS011;7067;51.832;8.296;2022-09-30T04:17:50;13.80;;;12.70;;
13985;SDS011;7067;51.832;8.296;2022-09-30T04:20:15;18.10;;;15.13;;
13985;SDS011;7067;51.832;8.296;2022-09-30T04:22:40;13.63;;;12.43;;
13985;SDS011;7067;51.832;8.296;2022-09-30T04:25:06;13.83;;;12.50;;
13985;SDS011;7067;51.832;8.296;2022-09-30T04:27:32;13.47;;;12.37;;
13985;SDS011;7067;51.832;8.296;2022-09-30T04:29:57;13.53;;;12.20;;
13985;SDS011;7067;51.832;8.296;2022-09-30T04:32:22;13.60;;;12.50;;
13985;SDS011;7067;51.832;8.296;2022-09-30T04:34:49;13.17;;;12.03;;
13985;SDS011;7067;51.832;8.296;2022-09-30T04:37:15;12.87;;;11.83;;
13985;SDS011;7067;51.832;8.296;2022-09-30T04:39:40;12.57;;;11.60;;
13985;SDS011;7067;51.832;8.296;2022-09-30T04:42:05;13.27;;;12.20;;
13985;SDS011;7067;51.832;8.296;2022-09-30T04:44:31;12.37;;;11.30;;
13985;SDS011;7067;51.832;8.296;2022-09-30T04:46:56;14.70;;;12.50;;
13985;SDS011;7067;51.832;8.296;2022-09-30T04:49:21;13.73;;;12.33;;
13985;SDS011;7067;51.832;8.296;2022-09-30T04:51:49;13.23;;;12.00;;
13985;SDS011;7067;51.832;8.296;2022-09-30T04:54:14;12.80;;;11.80;;
13985;SDS011;7067;51.832;8.296;2022-09-30T04:56:40;13.73;;;12.20;;
13985;SDS011;7067;51.832;8.296;2022-09-30T04:59:06;13.37;;;12.17;;
13985;SDS011;7067;51.832;8.296;2022-09-30T05:01:31;13.67;;;12.47;;
13985;SDS011;7067;51.832;8.296;2022-09-30T05:03:57;12.50;;;11.40;;
13985;SDS011;7067;51.832;8.296;2022-09-30T05:06:22;12.23;;;11.03;;
13985;SDS011;7067;51.832;8.296;2022-09-30T05:08:47;12.97;;;11.90;;
13985;SDS011;7067;51.832;8.296;2022-09-30T05:11:16;13.53;;;12.07;;
13985;SDS011;7067;51.832;8.296;2022-09-30T05:13:43;14.13;;;10.95;;
13985;SDS011;7067;51.832;8.296;2022-09-30T05:16:09;11.80;;;10.90;;
13985;SDS011;7067;51.832;8.296;2022-09-30T05:18:35;11.73;;;10.63;;
13985;SDS011;7067;51.832;8.296;2022-09-30T05:21:01;12.20;;;11.27;;
13985;SDS011;7067;51.832;8.296;2022-09-30T05:23:27;10.77;;;9.90;;
13985;SDS011;7067;51.832;8.296;2022-09-30T05:25:54;12.07;;;11.10;;
13985;SDS011;7067;51.832;8.296;2022-09-30T05:28:19;11.93;;;11.00;;
13985;SDS011;7067;51.832;8.296;2022-09-30T05:30:45;12.97;;;11.67;;
13985;SDS011;7067;51.832;8.296;2022-09-30T05:33:11;11.00;;;10.20;;
13985;SDS011;7067;51.832;8.296;2022-09-30T05:35:40;12.43;;;11.43;;
13985;SDS011;7067;51.832;8.296;2022-09-30T05:38:06;12.43;;;11.40;;
13985;SDS011;7067;51.832;8.296;2022-09-30T05:40:32;12.10;;;11.00;;
13985;SDS011;7067;51.832;8.296;2022-09-30T05:42:58;11.47;;;10.60;;
13985;SDS011;7067;51.832;8.296;2022-09-30T05:45:24;11.70;;;10.80;;
13985;SDS011;7067;51.832;8.296;2022-09-30T05:47:50;12.13;;;11.13;;
13985;SDS011;7067;51.832;8.296;2022-09-30T05:50:19;13.17;;;12.17;;
13985;SDS011;7067;51.832;8.296;2022-09-30T05:52:46;12.80;;;11.70;;
13985;SDS011;7067;51.832;8.296;2022-09-30T05:55:12;13.27;;;11.93;;
13985;SDS011;7067;51.832;8.296;2022-09-30T05:57:37;12.43;;;11.13;;
13985;SDS011;7067;51.832;8.296;2022-09-30T06:00:03;12.03;;;10.93;;
13985;SDS011;7067;51.832;8.296;2022-09-30T06:02:30;12.00;;;10.93;;
13985;SDS011;7067;51.832;8.296;2022-09-30T06:04:55;12.33;;;11.17;;
13985;SDS011;7067;51.832;8.296;2022-09-30T06:07:20;12.20;;;11.07;;
13985;SDS011;7067;51.832;8.296;2022-09-30T06:09:46;12.97;;;11.77;;
13985;SDS011;7067;51.832;8.296;2022-09-30T06:12:11;12.60;;;11.40;;
13985;SDS011;7067;51.832;8.296;2022-09-30T06:14:36;12.23;;;11.30;;
13985;SDS011;7067;51.832;8.296;2022-09-30T06:17:02;12.33;;;11.27;;
13985;SDS011;7067;51.832;8.296;2022-09-30T06:19:29;11.70;;;10.90;;
13985;SDS011;7067;51.832;8.296;2022-09-30T06:21:55;12.07;;;10.90;;
13985;SDS011;7067;51.832;8.296;2022-09-30T06:24:21;12.67;;;11.37;;
13985;SDS011;7067;51.832;8.296;2022-09-30T06:26:46;12.67;;;11.60;;
13985;SDS011;7067;51.832;8.296;2022-09-30T06:29:11;13.20;;;11.90;;
13985;SDS011;7067;51.832;8.296;2022-09-30T06:31:37;14.10;;;11.43;;
13985;SDS011;7067;51.832;8.296;2022-09-30T06:34:02;13.20;;;12.00;;
13985;SDS011;7067;51.832;8.296;2022-09-30T06:36:28;15.57;;;12.70;;
13985;SDS011;7067;51.832;8.296;2022-09-30T06:38:53;24.67;;;13.33;;
13985;SDS011;7067;51.832;8.296;2022-09-30T06:41:19;27.17;;;13.63;;
13985;SDS011;7067;51.832;8.296;2022-09-30T06:43:44;19.27;;;12.57;;
13985;SDS011;7067;51.832;8.296;2022-09-30T06:46:10;16.77;;;11.47;;
13985;SDS011;7067;51.832;8.296;2022-09-30T06:48:36;13.40;;;12.10;;
13985;SDS011;7067;51.832;8.296;2022-09-30T06:51:02;13.63;;;12.33;;
13985;SDS011;7067;51.832;8.296;2022-09-30T06:53:27;12.57;;;11.37;;
13985;SDS011;7067;51.832;8.296;2022-09-30T06:55:54;12.93;;;11.73;;
13985;SDS011;7067;51.832;8.296;2022-09-30T06:58:22;11.77;;;10.77;;
13985;SDS011;7067;51.832;8.296;2022-09-30T07:00:58;12.13;;;11.15;;
13985;SDS011;7067;51.832;8.296;2022-09-30T07:03:26;13.20;;;11.52;;
13985;SDS011;7067;51.832;8.296;2022-09-30T07:05:55;12.43;;;11.23;;
13985;SDS011;7067;51.832;8.296;2022-09-30T07:08:25;12.10;;;11.02;;
13985;SDS011;7067;51.832;8.296;2022-09-30T07:10:55;12.13;;;11.18;;
13985;SDS011;7067;51.832;8.296;2022-09-30T07:13:24;12.50;;;11.60;;
13985;SDS011;7067;51.832;8.296;2022-09-30T07:15:49;11.23;;;10.30;;
13985;SDS011;7067;51.832;8.296;2022-09-30T07:18:19;12.18;;;10.90;;
13985;SDS011;7067;51.832;8.296;2022-09-30T07:20:48;15.38;;;11.55;;
13985;SDS011;7067;51.832;8.296;2022-09-30T07:23:14;11.85;;;10.73;;
13985;SDS011;7067;51.832;8.296;2022-09-30T07:25:47;15.55;;;11.02;;
13985;SDS011;7067;51.832;8.296;2022-09-30T07:28:16;11.65;;;10.57;;
13985;SDS011;7067;51.832;8.296;2022-09-30T07:30:42;12.40;;;11.30;;
13985;SDS011;7067;51.832;8.296;2022-09-30T07:33:07;12.38;;;10.98;;
13985;SDS011;7067;51.832;8.296;2022-09-30T07:35:33;13.25;;;10.02;;
13985;SDS011;7067;51.832;8.296;2022-09-30T07:37:58;10.90;;;10.00;;
13985;SDS011;7067;51.832;8.296;2022-09-30T07:40:25;11.35;;;10.45;;
13985;SDS011;7067;51.832;8.296;2022-09-30T07:42:55;12.73;;;11.50;;
13985;SDS011;7067;51.832;8.296;2022-09-30T07:45:20;11.82;;;10.70;;
13985;SDS011;7067;51.832;8.296;2022-09-30T07:47:45;13.18;;;11.65;;
13985;SDS011;7067;51.832;8.296;2022-09-30T07:50:11;15.13;;;10.75;;
13985;SDS011;7067;51.832;8.296;2022-09-30T07:52:40;11.77;;;10.65;;
13985;SDS011;7067;51.832;8.296;2022-09-30T07:55:05;11.98;;;10.55;;
13985;SDS011;7067;51.832;8.296;2022-09-30T07:57:31;11.48;;;10.48;;
13985;SDS011;7067;51.832;8.296;2022-09-30T07:59:56;11.27;;;10.18;;
13985;SDS011;7067;51.832;8.296;2022-09-30T08:02:21;11.18;;;10.27;;
13985;SDS011;7067;51.832;8.296;2022-09-30T08:04:48;11.73;;;10.63;;
13985;SDS011;7067;51.832;8.296;2022-09-30T08:07:14;12.82;;;11.00;;
13985;SDS011;7067;51.832;8.296;2022-09-30T08:09:40;12.38;;;11.10;;
13985;SDS011;7067;51.832;8.296;2022-09-30T08:12:06;10.63;;;9.77;;
13985;SDS011;7067;51.832;8.296;2022-09-30T08:14:31;12.60;;;11.25;;
13985;SDS011;7067;51.832;8.296;2022-09-30T08:16:56;11.68;;;10.35;;
13985;SDS011;7067;51.832;8.296;2022-09-30T08:19:24;18.60;;;10.00;;
13985;SDS011;7067;51.832;8.296;2022-09-30T08:21:50;11.50;;;10.50;;
13985;SDS011;7067;51.832;8.296;2022-09-30T08:24:17;10.40;;;9.13;;
13985;SDS011;7067;51.832;8.296;2022-09-30T08:26:43;11.13;;;9.93;;
13985;SDS011;7067;51.832;8.296;2022-09-30T08:29:08;11.82;;;9.77;;
13985;SDS011;7067;51.832;8.296;2022-09-30T08:34:03;14.60;;;10.32;;
13985;SDS011;7067;51.832;8.296;2022-09-30T08:36:29;11.27;;;10.13;;
13985;SDS011;7067;51.832;8.296;2022-09-30T08:38:55;11.27;;;10.15;;
13985;SDS011;7067;51.832;8.296;2022-09-30T08:41:43;9.65;;;8.85;;
13985;SDS011;7067;51.832;8.296;2022-09-30T08:50:04;10.15;;;9.00;;
13985;SDS011;7067;51.832;8.296;2022-09-30T08:52:45;10.70;;;9.57;;
13985;SDS011;7067;51.832;8.296;2022-09-30T08:55:21;11.05;;;10.15;;
13985;SDS011;7067;51.832;8.296;2022-09-30T08:57:47;12.65;;;10.00;;
13985;SDS011;7067;51.832;8.296;2022-09-30T09:00:15;11.00;;;9.75;;
13985;SDS011;7067;51.832;8.296;2022-09-30T09:02:43;10.88;;;9.88;;
13985;SDS011;7067;51.832;8.296;2022-09-30T09:05:09;13.40;;;9.32;;
13985;SDS011;7067;51.832;8.296;2022-09-30T09:15:39;12.77;;;10.48;;
13985;SDS011;7067;51.832;8.296;2022-09-30T09:21:19;12.05;;;10.35;;
13985;SDS011;7067;51.832;8.296;2022-09-30T09:24:04;11.57;;;10.35;;
13985;SDS011;7067;51.832;8.296;2022-09-30T09:26:35;16.25;;;11.75;;
13985;SDS011;7067;51.832;8.296;2022-09-30T09:31:41;11.20;;;10.18;;
13985;SDS011;7067;51.832;8.296;2022-09-30T09:34:10;16.23;;;12.40;;
13985;SDS011;7067;51.832;8.296;2022-09-30T09:42:00;14.45;;;11.15;;
13985;SDS011;7067;51.832;8.296;2022-09-30T09:47:14;11.85;;;10.45;;
13985;SDS011;7067;51.832;8.296;2022-09-30T09:49:57;12.43;;;11.23;;
13985;SDS011;7067;51.832;8.296;2022-09-30T09:53:30;13.75;;;12.32;;
13985;SDS011;7067;51.832;8.296;2022-09-30T09:55:38;14.35;;;11.35;;
13985;SDS011;7067;51.832;8.296;2022-09-30T09:58:08;18.10;;;11.52;;
13985;SDS011;7067;51.832;8.296;2022-09-30T10:00:35;13.63;;;11.48;;
13985;SDS011;7067;51.832;8.296;2022-09-30T10:03:11;13.30;;;11.27;;
13985;SDS011;7067;51.832;8.296;2022-09-30T10:05:42;16.10;;;11.25;;
13985;SDS011;7067;51.832;8.296;2022-09-30T10:08:15;14.65;;;10.43;;
13985;SDS011;7067;51.832;8.296;2022-09-30T10:10:43;12.48;;;10.88;;
13985;SDS011;7067;51.832;8.296;2022-09-30T10:13:15;10.75;;;9.65;;
13985;SDS011;7067;51.832;8.296;2022-09-30T10:15:41;13.75;;;10.48;;
13985;SDS011;7067;51.832;8.296;2022-09-30T10:21:06;11.25;;;9.15;;
13985;SDS011;7067;51.832;8.296;2022-09-30T10:23:37;10.80;;;9.75;;
13985;SDS011;7067;51.832;8.296;2022-09-30T10:26:09;11.05;;;10.05;;
13985;SDS011;7067;51.832;8.296;2022-09-30T10:28:55;13.27;;;8.80;;
13985;SDS011;7067;51.832;8.296;2022-09-30T10:34:09;9.68;;;7.45;;
13985;SDS011;7067;51.832;8.296;2022-09-30T10:36:50;9.55;;;8.32;;
13985;SDS011;7067;51.832;8.296;2022-09-30T10:39:20;8.52;;;7.68;;
13985;SDS011;7067;51.832;8.296;2022-09-30T10:44:28;8.02;;;7.22;;
13985;SDS011;7067;51.832;8.296;2022-09-30T10:46:57;10.48;;;7.75;;
13985;SDS011;7067;51.832;8.296;2022-09-30T10:57:04;8.07;;;7.00;;
13985;SDS011;7067;51.832;8.296;2022-09-30T10:59:34;6.95;;;6.35;;
13985;SDS011;7067;51.832;8.296;2022-09-30T11:02:21;7.22;;;6.55;;
13985;SDS011;7067;51.832;8.296;2022-09-30T11:07:49;7.45;;;6.75;;
13985;SDS011;7067;51.832;8.296;2022-09-30T11:18:33;7.00;;;6.07;;
13985;SDS011;7067;51.832;8.296;2022-09-30T11:21:04;10.55;;;6.63;;
13985;SDS011;7067;51.832;8.296;2022-09-30T11:26:58;6.80;;;6.10;;
13985;SDS011;7067;51.832;8.296;2022-09-30T11:29:46;7.88;;;6.20;;
13985;SDS011;7067;51.832;8.296;2022-09-30T11:41:35;5.68;;;5.18;;
13985;SDS011;7067;51.832;8.296;2022-09-30T11:44:15;6.15;;;5.10;;
13985;SDS011;7067;51.832;8.296;2022-09-30T11:46:49;5.18;;;4.78;;
13985;SDS011;7067;51.832;8.296;2022-09-30T11:49:26;6.03;;;5.45;;
13985;SDS011;7067;51.832;8.296;2022-09-30T11:52:04;6.07;;;5.47;;
13985;SDS011;7067;51.832;8.296;2022-09-30T11:57:36;5.75;;;4.70;;
13985;SDS011;7067;51.832;8.296;2022-09-30T12:02:42;8.88;;;4.63;;
13985;SDS011;7067;51.832;8.296;2022-09-30T12:10:49;6.80;;;3.47;;
13985;SDS011;7067;51.832;8.296;2022-09-30T12:13:19;7.25;;;4.53;;
13985;SDS011;7067;51.832;8.296;2022-09-30T12:15:48;8.32;;;3.70;;
13985;SDS011;7067;51.832;8.296;2022-09-30T12:18:19;3.88;;;3.47;;
13985;SDS011;7067;51.832;8.296;2022-09-30T12:21:00;6.30;;;3.40;;
13985;SDS011;7067;51.832;8.296;2022-09-30T12:23:47;3.45;;;3.00;;
13985;SDS011;7067;51.832;8.296;2022-09-30T12:26:15;5.05;;;4.07;;
13985;SDS011;7067;51.832;8.296;2022-09-30T12:28:45;4.15;;;3.60;;
13985;SDS011;7067;51.832;8.296;2022-09-30T12:34:58;4.55;;;3.55;;
13985;SDS011;7067;51.832;8.296;2022-09-30T12:37:33;3.80;;;3.50;;
13985;SDS011;7067;51.832;8.296;2022-09-30T12:42:51;3.95;;;3.55;;
13985;SDS011;7067;51.832;8.296;2022-09-30T12:45:45;4.38;;;3.70;;
13985;SDS011;7067;51.832;8.296;2022-09-30T12:48:38;4.05;;;2.38;;
13985;SDS011;7067;51.832;8.296;2022-09-30T12:51:06;2.90;;;2.70;;
13985;SDS011;7067;51.832;8.296;2022-09-30T12:53:32;3.90;;;3.28;;
13985;SDS011;7067;51.832;8.296;2022-09-30T12:56:04;5.53;;;4.45;;
13985;SDS011;7067;51.832;8.296;2022-09-30T12:58:40;3.55;;;3.00;;
13985;SDS011;7067;51.832;8.296;2022-09-30T13:01:13;3.63;;;3.28;;
13985;SDS011;7067;51.832;8.296;2022-09-30T13:06:12;5.97;;;3.83;;
13985;SDS011;7067;51.832;8.296;2022-09-30T13:08:43;4.97;;;3.13;;
13985;SDS011;7067;51.832;8.296;2022-09-30T13:14:42;4.15;;;3.58;;
13985;SDS011;7067;51.832;8.296;2022-09-30T13:17:02;4.25;;;3.58;;
13985;SDS011;7067;51.832;8.296;2022-09-30T13:27:42;6.50;;;4.00;;
13985;SDS011;7067;51.832;8.296;2022-09-30T13:35:29;5.07;;;3.40;;
13985;SDS011;7067;51.832;8.296;2022-09-30T13:40:35;6.03;;;3.80;;
13985;SDS011;7067;51.832;8.296;2022-09-30T13:45:32;5.13;;;3.10;;
13985;SDS011;7067;51.832;8.296;2022-09-30T13:48:03;3.93;;;3.47;;
13985;SDS011;7067;51.832;8.296;2022-09-30T13:50:51;5.30;;;4.03;;
13985;SDS011;7067;51.832;8.296;2022-09-30T13:56:26;5.10;;;3.08;;
13985;SDS011;7067;51.832;8.296;2022-09-30T14:12:38;3.28;;;2.28;;
13985;SDS011;7067;51.832;8.296;2022-09-30T14:18:25;4.22;;;1.90;;
13985;SDS011;7067;51.832;8.296;2022-09-30T14:21:04;3.83;;;2.53;;
13985;SDS011;7067;51.832;8.296;2022-09-30T14:23:39;6.18;;;2.30;;
13985;SDS011;7067;51.832;8.296;2022-09-30T14:26:13;2.85;;;2.65;;
13985;SDS011;7067;51.832;8.296;2022-09-30T14:28:54;3.55;;;2.70;;
13985;SDS011;7067;51.832;8.296;2022-09-30T14:31:44;4.32;;;2.53;;
13985;SDS011;7067;51.832;8.296;2022-09-30T14:34:11;3.55;;;2.30;;
13985;SDS011;7067;51.832;8.296;2022-09-30T14:36:37;3.42;;;2.65;;
13985;SDS011;7067;51.832;8.296;2022-09-30T14:39:04;20.90;;;8.95;;
13985;SDS011;7067;51.832;8.296;2022-09-30T14:41:29;15.05;;;5.00;;
13985;SDS011;7067;51.832;8.296;2022-09-30T14:43:56;4.32;;;3.20;;
13985;SDS011;7067;51.832;8.296;2022-09-30T14:48:59;4.18;;;2.70;;
13985;SDS011;7067;51.832;8.296;2022-09-30T14:51:33;3.35;;;2.35;;
13985;SDS011;7067;51.832;8.296;2022-09-30T14:54:01;2.92;;;2.20;;
13985;SDS011;7067;51.832;8.296;2022-09-30T14:56:34;3.85;;;2.22;;
13985;SDS011;7067;51.832;8.296;2022-09-30T14:59:12;2.95;;;2.22;;
13985;SDS011;7067;51.832;8.296;2022-09-30T15:01:40;2.33;;;1.70;;
13985;SDS011;7067;51.832;8.296;2022-09-30T15:04:16;3.30;;;1.50;;
13985;SDS011;7067;51.832;8.296;2022-09-30T15:06:45;3.63;;;2.13;;
13985;SDS011;7067;51.832;8.296;2022-09-30T15:11:53;2.38;;;1.65;;
13985;SDS011;7067;51.832;8.296;2022-09-30T15:14:19;3.35;;;2.03;;
13985;SDS011;7067;51.832;8.296;2022-09-30T15:19:16;1.98;;;1.40;;
13985;SDS011;7067;51.832;8.296;2022-09-30T15:21:45;4.13;;;1.67;;
13985;SDS011;7067;51.832;8.296;2022-09-30T15:24:12;1.83;;;1.58;;
13985;SDS011;7067;51.832;8.296;2022-09-30T15:26:37;2.42;;;1.80;;
13985;SDS011;7067;51.832;8.296;2022-09-30T15:29:03;1.77;;;1.63;;
13985;SDS011;7067;51.832;8.296;2022-09-30T15:31:29;3.13;;;2.28;;
13985;SDS011;7067;51.832;8.296;2022-09-30T15:34:03;2.58;;;2.00;;
13985;SDS011;7067;51.832;8.296;2022-09-30T15:36:30;4.90;;;2.00;;
13985;SDS011;7067;51.832;8.296;2022-09-30T15:38:56;2.85;;;1.90;;
13985;SDS011;7067;51.832;8.296;2022-09-30T15:41:21;1.70;;;1.30;;
13985;SDS011;7067;51.832;8.296;2022-09-30T15:43:48;1.65;;;1.10;;
13985;SDS011;7067;51.832;8.296;2022-09-30T15:46:25;1.58;;;1.20;;
13985;SDS011;7067;51.832;8.296;2022-09-30T15:48:53;2.28;;;1.30;;
13985;SDS011;7067;51.832;8.296;2022-09-30T15:54:01;1.42;;;0.95;;
13985;SDS011;7067;51.832;8.296;2022-09-30T15:56:47;2.13;;;1.20;;
13985;SDS011;7067;51.832;8.296;2022-09-30T15:59:13;2.42;;;0.90;;
13985;SDS011;7067;51.832;8.296;2022-09-30T16:01:48;2.05;;;1.27;;
13985;SDS011;7067;51.832;8.296;2022-09-30T16:09:18;1.10;;;0.77;;
13985;SDS011;7067;51.832;8.296;2022-09-30T16:14:21;1.95;;;0.70;;
13985;SDS011;7067;51.832;8.296;2022-09-30T16:16:50;1.25;;;0.75;;
13985;SDS011;7067;51.832;8.296;2022-09-30T16:19:17;2.35;;;1.02;;
13985;SDS011;7067;51.832;8.296;2022-09-30T16:26:50;3.53;;;0.90;;
13985;SDS011;7067;51.832;8.296;2022-09-30T16:29:16;3.40;;;0.80;;
13985;SDS011;7067;51.832;8.296;2022-09-30T16:31:42;1.58;;;0.90;;
13985;SDS011;7067;51.832;8.296;2022-09-30T16:34:21;2.10;;;0.85;;
13985;SDS011;7067;51.832;8.296;2022-09-30T16:36:48;2.00;;;0.60;;
13985;SDS011;7067;51.832;8.296;2022-09-30T16:39:14;4.10;;;0.90;;
13985;SDS011;7067;51.832;8.296;2022-09-30T16:41:40;1.00;;;0.85;;
13985;SDS011;7067;51.832;8.296;2022-09-30T16:44:06;1.75;;;0.98;;
13985;SDS011;7067;51.832;8.296;2022-09-30T16:46:32;2.90;;;0.80;;
13985;SDS011;7067;51.832;8.296;2022-09-30T16:48:58;1.75;;;1.25;;
13985;SDS011;7067;51.832;8.296;2022-09-30T16:51:23;1.02;;;0.75;;
13985;SDS011;7067;51.832;8.296;2022-09-30T16:53:48;3.22;;;0.95;;
13985;SDS011;7067;51.832;8.296;2022-09-30T16:56:14;3.80;;;1.00;;
13985;SDS011;7067;51.832;8.296;2022-09-30T16:58:42;2.78;;;0.80;;
13985;SDS011;7067;51.832;8.296;2022-09-30T17:01:20;1.38;;;0.90;;
13985;SDS011;7067;51.832;8.296;2022-09-30T17:03:47;1.40;;;1.10;;
13985;SDS011;7067;51.832;8.296;2022-09-30T17:06:16;1.35;;;1.00;;
13985;SDS011;7067;51.832;8.296;2022-09-30T17:08:43;1.40;;;1.10;;
13985;SDS011;7067;51.832;8.296;2022-09-30T17:11:09;3.80;;;1.52;;
13985;SDS011;7067;51.832;8.296;2022-09-30T17:13:35;5.75;;;1.38;;
13985;SDS011;7067;51.832;8.296;2022-09-30T17:16:00;1.17;;;1.08;;
13985;SDS011;7067;51.832;8.296;2022-09-30T17:18:26;6.03;;;1.27;;
13985;SDS011;7067;51.832;8.296;2022-09-30T17:20:51;1.75;;;1.10;;
13985;SDS011;7067;51.832;8.296;2022-09-30T17:23:21;4.10;;;1.33;;
13985;SDS011;7067;51.832;8.296;2022-09-30T17:28:13;4.43;;;2.47;;
13985;SDS011;7067;51.832;8.296;2022-09-30T17:30:39;5.32;;;2.70;;
13985;SDS011;7067;51.832;8.296;2022-09-30T17:33:05;4.88;;;3.50;;
13985;SDS011;7067;51.832;8.296;2022-09-30T17:35:33;3.90;;;3.40;;
13985;SDS011;7067;51.832;8.296;2022-09-30T17:37:59;3.95;;;3.30;;
13985;SDS011;7067;51.832;8.296;2022-09-30T17:40:25;3.10;;;2.47;;
13985;SDS011;7067;51.832;8.296;2022-09-30T17:43:16;3.10;;;2.63;;
13985;SDS011;7067;51.832;8.296;2022-09-30T17:45:42;3.05;;;2.58;;
13985;SDS011;7067;51.832;8.296;2022-09-30T17:48:10;3.25;;;2.55;;
13985;SDS011;7067;51.832;8.296;2022-09-30T17:50:37;3.53;;;2.30;;
13985;SDS011;7067;51.832;8.296;2022-09-30T17:53:03;2.97;;;2.40;;
13985;SDS011;7067;51.832;8.296;2022-09-30T17:55:29;6.15;;;2.20;;
13985;SDS011;7067;51.832;8.296;2022-09-30T17:57:55;3.40;;;2.38;;
13985;SDS011;7067;51.832;8.296;2022-09-30T18:00:21;3.00;;;2.42;;
13985;SDS011;7067;51.832;8.296;2022-09-30T18:02:47;4.40;;;3.08;;
13985;SDS011;7067;51.832;8.296;2022-09-30T18:05:13;4.93;;;3.30;;
13985;SDS011;7067;51.832;8.296;2022-09-30T18:07:39;6.55;;;3.53;;
13985;SDS011;7067;51.832;8.296;2022-09-30T18:10:05;4.60;;;3.67;;
13985;SDS011;7067;51.832;8.296;2022-09-30T18:12:31;4.72;;;3.72;;
13985;SDS011;7067;51.832;8.296;2022-09-30T18:14:58;3.53;;;3.20;;
13985;SDS011;7067;51.832;8.296;2022-09-30T18:17:23;5.90;;;3.85;;
13985;SDS011;7067;51.832;8.296;2022-09-30T18:19:49;4.30;;;3.90;;
13985;SDS011;7067;51.832;8.296;2022-09-30T18:22:14;6.38;;;3.78;;
13985;SDS011;7067;51.832;8.296;2022-09-30T18:24:40;6.00;;;3.90;;
13985;SDS011;7067;51.832;8.296;2022-09-30T18:27:23;6.32;;;4.20;;
13985;SDS011;7067;51.832;8.296;2022-09-30T18:29:49;7.05;;;4.65;;
13985;SDS011;7067;51.832;8.296;2022-09-30T18:32:15;5.30;;;4.80;;
13985;SDS011;7067;51.832;8.296;2022-09-30T18:34:41;4.40;;;4.00;;
13985;SDS011;7067;51.832;8.296;2022-09-30T18:37:07;3.95;;;3.65;;